createdAt,value
2018-02-22T00:01:30.944Z,33.53
2018-02-22T00:03:59.186Z,40.07
2018-02-22T00:06:28.226Z,33.73
2018-02-22T00:08:56.507Z,38.37
2018-02-22T00:11:24.769Z,40.20
2018-02-22T00:13:53.034Z,40.73
2018-02-22T00:16:21.310Z,32.60
2018-02-22T00:18:50.330Z,34.57
2018-02-22T00:21:18.641Z,31.90
2018-02-22T00:23:46.896Z,38.13
2018-02-22T00:26:15.194Z,33.60
2018-02-22T00:28:43.481Z,33.00
2018-02-22T00:31:11.741Z,34.10
2018-02-22T00:33:40.042Z,43.38
2018-02-22T00:36:08.303Z,32.40
2018-02-22T00:38:36.613Z,30.33
2018-02-22T00:41:04.902Z,33.83
2018-02-22T00:43:33.162Z,29.42
2018-02-22T00:46:01.501Z,34.45
2018-02-22T00:48:30.662Z,33.60
2018-02-22T00:50:58.949Z,32.50
2018-02-22T00:53:27.301Z,31.00
2018-02-22T00:55:55.554Z,29.60
2018-02-22T00:58:23.852Z,35.63
2018-02-22T01:00:52.107Z,38.80
2018-02-22T01:03:21.151Z,31.27
2018-02-22T01:05:49.400Z,29.57
2018-02-22T01:08:17.678Z,30.33
2018-02-22T01:10:46.686Z,30.60
2018-02-22T01:13:15.008Z,27.93
2018-02-22T01:15:43.282Z,30.67
2018-02-22T01:18:11.547Z,29.20
2018-02-22T01:20:39.815Z,34.53
2018-02-22T01:23:08.089Z,36.47
2018-02-22T01:25:36.338Z,33.27
2018-02-22T01:28:05.394Z,31.05
2018-02-22T01:30:33.656Z,31.00
2018-02-22T01:33:01.935Z,29.95
2018-02-22T01:35:30.254Z,31.75
2018-02-22T01:37:58.551Z,28.58
2018-02-22T01:40:26.805Z,28.17
2018-02-22T01:42:55.095Z,31.27
2018-02-22T01:45:23.357Z,28.87
2018-02-22T01:47:51.618Z,32.60
2018-02-22T01:50:19.941Z,28.67
2018-02-22T01:52:48.194Z,30.77
2018-02-22T01:55:16.453Z,27.90
2018-02-22T01:57:44.773Z,26.85
2018-02-22T02:00:13.063Z,29.23
2018-02-22T02:02:41.364Z,29.00
2018-02-22T02:05:09.732Z,29.95
2018-02-22T02:07:37.978Z,26.70
2018-02-22T02:10:06.253Z,29.15
2018-02-22T02:12:34.512Z,31.70
2018-02-22T02:15:03.683Z,26.58
2018-02-22T02:17:32.058Z,27.83
2018-02-22T02:20:01.406Z,29.90
2018-02-22T02:22:30.495Z,32.65
2018-02-22T02:25:00.768Z,33.50
2018-02-22T02:27:29.018Z,29.20
2018-02-22T02:29:57.852Z,31.10
2018-02-22T02:32:26.123Z,29.92
2018-02-22T02:34:54.403Z,27.60
2018-02-22T02:37:22.694Z,26.30
2018-02-22T02:39:50.982Z,38.63
2018-02-22T02:42:19.368Z,31.10
2018-02-22T02:44:47.613Z,29.60
2018-02-22T02:47:15.894Z,30.30
2018-02-22T02:49:44.157Z,31.05
2018-02-22T02:52:12.482Z,29.27
2018-02-22T02:54:40.749Z,28.65
2018-02-22T02:57:09.022Z,29.85
2018-02-22T02:59:37.322Z,29.80
2018-02-22T03:02:05.592Z,30.00
2018-02-22T03:04:33.886Z,39.47
2018-02-22T03:07:02.171Z,30.62
2018-02-22T03:09:30.467Z,26.30
2018-02-22T03:11:58.831Z,34.80
2018-02-22T03:14:27.082Z,29.80
2018-02-22T03:16:55.358Z,33.85
2018-02-22T03:19:23.606Z,32.15
2018-02-22T03:21:51.898Z,27.80
2018-02-22T03:24:20.156Z,32.57
2018-02-22T03:26:48.422Z,33.78
2018-02-22T03:29:16.685Z,29.45
2018-02-22T03:31:44.946Z,31.30
2018-02-22T03:34:13.217Z,31.53
2018-02-22T03:36:42.241Z,33.27
2018-02-22T03:39:10.518Z,33.23
2018-02-22T03:41:38.818Z,30.47
2018-02-22T03:44:07.200Z,30.60
2018-02-22T03:46:35.501Z,31.17
2018-02-22T03:49:03.767Z,30.03
2018-02-22T03:51:32.153Z,33.00
2018-02-22T03:54:00.446Z,34.78
2018-02-22T03:56:28.710Z,28.23
2018-02-22T03:58:56.981Z,33.43
2018-02-22T04:01:25.246Z,28.60
2018-02-22T04:03:53.514Z,36.57
2018-02-22T04:06:21.773Z,34.20
2018-02-22T04:08:50.855Z,31.37
2018-02-22T04:11:19.116Z,30.70
2018-02-22T04:13:47.387Z,33.00
2018-02-22T04:16:15.688Z,29.52
2018-02-22T04:18:43.954Z,30.00
2018-02-22T04:21:12.216Z,30.12
2018-02-22T04:23:40.502Z,29.30
2018-02-22T04:26:08.810Z,31.33
2018-02-22T04:28:37.190Z,29.63
2018-02-22T04:31:05.476Z,30.33
2018-02-22T04:33:33.726Z,39.97
2018-02-22T04:36:02.007Z,29.23
2018-02-22T04:38:30.964Z,30.25
2018-02-22T04:40:59.209Z,29.37
2018-02-22T04:43:27.470Z,28.38
2018-02-22T04:45:55.755Z,25.80
2018-02-22T04:48:24.013Z,28.10
2018-02-22T04:50:52.286Z,31.02
2018-02-22T04:53:21.307Z,26.10
2018-02-22T04:55:49.575Z,31.02
2018-02-22T04:58:17.841Z,30.02
2018-02-22T05:00:46.878Z,29.77
2018-02-22T05:03:15.160Z,29.73
2018-02-22T05:05:43.424Z,24.85
2018-02-22T05:08:11.673Z,23.73
2018-02-22T05:10:40.720Z,26.87
2018-02-22T05:13:08.970Z,25.00
2018-02-22T05:15:37.262Z,24.70
2018-02-22T05:18:05.526Z,31.03
2018-02-22T05:20:34.570Z,30.02
2018-02-22T05:23:02.825Z,31.27
2018-02-22T05:25:31.092Z,23.83
2018-02-22T05:27:59.408Z,22.80
2018-02-22T05:30:27.678Z,25.40
2018-02-22T05:32:55.945Z,27.73
2018-02-22T05:35:24.207Z,26.60
2018-02-22T05:37:53.262Z,29.77
2018-02-22T05:40:21.551Z,25.80
2018-02-22T05:42:49.835Z,30.33
2018-02-22T05:45:19.130Z,25.67
2018-02-22T05:47:49.033Z,27.55
2018-02-22T05:50:17.292Z,24.10
2018-02-22T05:52:45.564Z,27.35
2018-02-22T05:55:14.617Z,27.63
2018-02-22T05:57:42.880Z,28.87
2018-02-22T06:00:11.134Z,28.12
2018-02-22T06:02:39.408Z,26.42
2018-02-22T06:05:08.458Z,30.10
2018-02-22T06:07:36.847Z,26.20
2018-02-22T06:10:05.120Z,25.45
2018-02-22T06:12:33.400Z,32.47
2018-02-22T06:15:01.699Z,28.83
2018-02-22T06:17:29.974Z,27.60
2018-02-22T06:19:58.214Z,32.60
2018-02-22T06:22:26.495Z,30.10
2018-02-22T06:24:54.780Z,31.42
2018-02-22T06:27:23.040Z,28.75
2018-02-22T06:29:52.707Z,28.52
2018-02-22T06:32:20.970Z,29.83
2018-02-22T06:34:59.620Z,26.50
2018-02-22T06:37:29.815Z,31.37
2018-02-22T06:39:58.092Z,33.10
2018-02-22T06:42:26.450Z,29.80
2018-02-22T06:44:55.505Z,25.10
2018-02-22T06:47:23.765Z,33.35
2018-02-22T06:49:52.046Z,21.87
2018-02-22T06:52:20.364Z,25.00
2018-02-22T06:54:48.627Z,26.50
2018-02-22T06:57:17.661Z,27.17
2018-02-22T06:59:45.935Z,33.97
2018-02-22T07:02:14.182Z,24.25
2018-02-22T07:04:42.462Z,27.37
2018-02-22T07:07:10.714Z,28.25
2018-02-22T07:09:38.992Z,28.58
2018-02-22T07:12:07.305Z,23.87
2018-02-22T07:14:35.577Z,25.27
2018-02-22T07:17:03.858Z,26.20
2018-02-22T07:19:32.141Z,23.33
2018-02-22T07:22:00.684Z,28.93
2018-02-22T07:24:28.959Z,24.17
2018-02-22T07:26:57.223Z,23.10
2018-02-22T07:29:25.505Z,26.10
2018-02-22T07:31:53.798Z,20.80
2018-02-22T07:34:22.055Z,27.60
2018-02-22T07:36:50.297Z,25.53
2018-02-22T07:39:18.570Z,24.30
2018-02-22T07:41:46.826Z,28.43
2018-02-22T07:44:15.858Z,23.67
2018-02-22T07:46:44.102Z,26.50
2018-02-22T07:49:12.379Z,26.67
2018-02-22T07:51:42.135Z,29.90
2018-02-22T07:54:10.403Z,25.93
2018-02-22T07:56:39.437Z,25.30
2018-02-22T07:59:07.714Z,25.47
2018-02-22T08:01:35.965Z,28.80
2018-02-22T08:04:05.024Z,20.03
2018-02-22T08:06:33.315Z,20.40
2018-02-22T08:09:01.578Z,19.37
2018-02-22T08:11:29.846Z,24.40
2018-02-22T08:13:59.058Z,22.77
2018-02-22T08:16:27.321Z,22.90
2018-02-22T08:18:55.582Z,21.43
2018-02-22T08:21:23.848Z,23.17
2018-02-22T08:23:52.939Z,22.37
2018-02-22T08:26:21.210Z,25.30
2018-02-22T08:28:49.468Z,20.90
2018-02-22T08:31:17.736Z,22.83
2018-02-22T08:33:45.998Z,23.73
2018-02-22T08:36:14.301Z,20.73
2018-02-22T08:38:42.590Z,22.93
2018-02-22T08:41:10.850Z,22.13
2018-02-22T08:43:39.183Z,18.63
2018-02-22T08:46:07.446Z,19.27
2018-02-22T08:48:35.724Z,23.57
2018-02-22T08:51:03.995Z,18.50
2018-02-22T08:53:32.306Z,17.13
2018-02-22T08:56:00.567Z,21.47
2018-02-22T08:58:28.832Z,21.10
2018-02-22T09:00:57.107Z,21.53
2018-02-22T09:03:25.359Z,19.63
2018-02-22T09:05:54.397Z,22.13
2018-02-22T09:08:22.653Z,18.60
2018-02-22T09:10:50.926Z,17.27
2018-02-22T09:13:19.953Z,17.17
2018-02-22T09:15:48.222Z,17.20
2018-02-22T09:18:16.470Z,17.00
2018-02-22T09:20:44.743Z,18.30
2018-02-22T09:23:12.998Z,20.83
2018-02-22T09:25:41.262Z,16.23
2018-02-22T09:28:09.520Z,20.57
2018-02-22T09:30:37.836Z,16.47
2018-02-22T09:33:06.098Z,15.07
2018-02-22T09:35:34.371Z,18.67
2018-02-22T09:38:02.632Z,19.80
2018-02-22T09:40:30.946Z,13.80
2018-02-22T09:42:59.966Z,15.37
2018-02-22T09:45:28.242Z,17.60
2018-02-22T09:47:57.276Z,17.30
2018-02-22T09:50:26.319Z,17.20
2018-02-22T09:52:55.540Z,17.80
2018-02-22T09:55:23.806Z,17.93
2018-02-22T09:57:52.096Z,19.13
2018-02-22T10:00:20.368Z,17.60
2018-02-22T10:02:48.626Z,19.83
2018-02-22T10:05:16.886Z,19.23
2018-02-22T10:07:45.959Z,16.10
2018-02-22T10:10:14.216Z,19.43
2018-02-22T10:12:42.497Z,18.67
2018-02-22T10:15:10.776Z,17.93
2018-02-22T10:17:39.026Z,17.73
2018-02-22T10:20:08.068Z,17.70
2018-02-22T10:22:36.318Z,17.27
2018-02-22T10:25:04.594Z,20.40
2018-02-22T10:27:32.852Z,17.47
2018-02-22T10:30:01.887Z,19.83
2018-02-22T10:32:30.134Z,20.50
2018-02-22T10:34:59.170Z,18.70
2018-02-22T10:37:27.423Z,19.90
2018-02-22T10:39:55.697Z,19.67
2018-02-22T10:42:24.710Z,15.97
2018-02-22T10:44:53.026Z,17.47
2018-02-22T10:47:21.288Z,17.17
2018-02-22T10:49:49.646Z,19.00
2018-02-22T10:52:18.662Z,17.07
2018-02-22T10:54:46.996Z,16.53
2018-02-22T10:57:15.215Z,14.67
2018-02-22T10:59:43.475Z,18.33
2018-02-22T11:02:18.135Z,16.17
2018-02-22T11:04:47.399Z,14.63
2018-02-22T11:07:16.632Z,16.90
2018-02-22T11:09:45.250Z,15.10
2018-02-22T11:12:13.492Z,15.23
2018-02-22T11:14:42.527Z,16.40
2018-02-22T11:17:10.824Z,15.50
2018-02-22T11:19:39.085Z,13.83
2018-02-22T11:22:07.325Z,16.90
2018-02-22T11:24:35.589Z,13.70
2018-02-22T11:27:03.837Z,15.03
2018-02-22T11:29:32.101Z,15.30
2018-02-22T11:32:00.360Z,14.33
2018-02-22T11:34:29.412Z,13.97
2018-02-22T11:36:57.667Z,13.30
2018-02-22T11:39:25.928Z,12.70
2018-02-22T11:41:54.943Z,12.67
2018-02-22T11:44:23.379Z,11.50
2018-02-22T11:46:51.616Z,12.03
2018-02-22T11:49:19.912Z,13.80
2018-02-22T11:51:48.192Z,9.33
2018-02-22T11:54:16.466Z,13.07
2018-02-22T11:56:44.709Z,12.80
2018-02-22T11:59:13.730Z,10.67
2018-02-22T12:01:41.994Z,12.07
2018-02-22T12:04:11.030Z,11.20
2018-02-22T12:06:39.291Z,8.53
2018-02-22T12:09:07.545Z,9.37
2018-02-22T12:11:36.723Z,10.30
2018-02-22T12:14:04.949Z,11.90
2018-02-22T12:16:33.217Z,12.73
2018-02-22T12:19:02.327Z,10.90
2018-02-22T12:21:31.351Z,11.13
2018-02-22T12:23:59.609Z,10.57
2018-02-22T12:26:28.630Z,8.97
2018-02-22T12:28:56.879Z,9.37
2018-02-22T12:31:26.439Z,10.27
2018-02-22T12:34:01.057Z,9.00
2018-02-22T12:36:29.302Z,9.63
2018-02-22T12:38:58.315Z,9.40
2018-02-22T12:41:26.583Z,11.30
2018-02-22T12:43:55.642Z,11.33
2018-02-22T12:46:23.889Z,12.00
2018-02-22T12:48:52.138Z,10.90
2018-02-22T12:51:21.158Z,9.90
2018-02-22T12:53:49.399Z,10.93
2018-02-22T12:56:17.703Z,9.77
2018-02-22T12:58:45.916Z,11.33
2018-02-22T13:01:14.170Z,8.63
2018-02-22T13:03:42.416Z,9.63
2018-02-22T13:06:10.665Z,10.77
2018-02-22T13:08:38.941Z,11.90
2018-02-22T13:11:07.199Z,9.00
2018-02-22T13:13:35.441Z,13.43
2018-02-22T13:16:03.717Z,12.73
2018-02-22T13:18:31.968Z,8.43
2018-02-22T13:21:00.230Z,9.53
2018-02-22T13:23:28.522Z,11.33
2018-02-22T13:25:56.790Z,10.50
2018-02-22T13:28:25.042Z,9.27
2018-02-22T13:30:54.080Z,9.23
2018-02-22T13:33:34.111Z,10.80
2018-02-22T13:36:03.130Z,9.27
2018-02-22T13:38:44.209Z,12.13
2018-02-22T13:41:12.485Z,10.03
2018-02-22T13:43:40.739Z,12.33
2018-02-22T13:46:09.763Z,9.93
2018-02-22T13:48:51.391Z,10.30
2018-02-22T13:51:19.647Z,10.40
2018-02-22T13:53:47.881Z,10.87
2018-02-22T13:56:28.790Z,11.63
2018-02-22T13:58:57.030Z,7.53
2018-02-22T14:01:37.224Z,10.10
2018-02-22T14:04:05.471Z,10.47
2018-02-22T14:06:33.731Z,7.20
2018-02-22T14:09:01.975Z,7.90
2018-02-22T14:11:30.242Z,8.47
2018-02-22T14:13:58.494Z,8.40
2018-02-22T14:16:28.265Z,8.40
2018-02-22T14:18:56.501Z,7.97
2018-02-22T14:21:25.552Z,9.80
2018-02-22T14:23:53.828Z,7.17
2018-02-22T14:26:22.098Z,12.63
2018-02-22T14:28:50.339Z,13.47
2018-02-22T14:31:18.590Z,8.73
2018-02-22T14:33:46.876Z,8.60
2018-02-22T14:36:15.115Z,10.10
2018-02-22T14:38:43.414Z,9.70
2018-02-22T14:41:11.676Z,8.57
2018-02-22T14:43:39.910Z,9.23
2018-02-22T14:46:08.163Z,9.77
2018-02-22T14:48:36.406Z,11.83
2018-02-22T14:51:04.673Z,10.50
2018-02-22T14:53:33.688Z,11.53
2018-02-22T14:56:01.955Z,8.37
2018-02-22T14:58:30.186Z,9.57
2018-02-22T15:01:04.251Z,10.77
2018-02-22T15:03:33.317Z,7.10
2018-02-22T15:06:01.648Z,8.40
2018-02-22T15:08:29.900Z,8.33
2018-02-22T15:10:58.943Z,7.80
2018-02-22T15:13:27.190Z,8.10
2018-02-22T15:15:57.144Z,10.77
2018-02-22T15:18:25.425Z,8.77
2018-02-22T15:20:53.732Z,8.30
2018-02-22T15:23:21.989Z,9.23
2018-02-22T15:25:50.262Z,7.43
2018-02-22T15:28:18.502Z,9.57
2018-02-22T15:30:47.528Z,7.40
2018-02-22T15:33:15.793Z,13.30
2018-02-22T15:35:44.790Z,8.57
2018-02-22T15:38:13.793Z,7.97
2018-02-22T15:40:42.118Z,13.97
2018-02-22T15:43:10.363Z,9.17
2018-02-22T15:45:39.386Z,9.60
2018-02-22T15:48:07.676Z,9.83
2018-02-22T15:50:35.927Z,9.33
2018-02-22T15:53:04.174Z,9.90
2018-02-22T15:55:32.511Z,8.90
2018-02-22T15:58:00.762Z,7.03
2018-02-22T16:00:29.067Z,9.50
2018-02-22T16:02:57.326Z,7.90
2018-02-22T16:05:25.570Z,12.17
2018-02-22T16:07:53.822Z,9.33
2018-02-22T16:10:22.068Z,8.00
2018-02-22T16:12:50.315Z,7.40
2018-02-22T16:15:19.321Z,8.57
2018-02-22T16:17:48.348Z,8.37
2018-02-22T16:20:16.648Z,11.10
2018-02-22T16:22:44.906Z,12.93
2018-02-22T16:25:13.148Z,10.27
2018-02-22T16:27:41.420Z,10.30
2018-02-22T16:30:09.655Z,7.33
2018-02-22T16:32:37.919Z,9.70
2018-02-22T16:35:06.925Z,9.00
2018-02-22T16:37:35.234Z,12.07
2018-02-22T16:40:03.472Z,9.97
2018-02-22T16:42:32.506Z,8.63
2018-02-22T16:45:00.756Z,10.63
2018-02-22T16:47:29.808Z,9.83
2018-02-22T16:49:58.035Z,11.60
2018-02-22T16:52:27.068Z,9.83
2018-02-22T16:54:55.903Z,13.33
2018-02-22T16:57:25.010Z,13.93
2018-02-22T16:59:54.399Z,9.57
2018-02-22T17:02:23.102Z,7.83
2018-02-22T17:04:52.420Z,9.57
2018-02-22T17:07:22.479Z,9.87
2018-02-22T17:09:51.413Z,11.87
2018-02-22T17:12:19.916Z,11.70
2018-02-22T17:14:48.150Z,14.03
2018-02-22T17:17:16.490Z,11.20
2018-02-22T17:19:44.667Z,8.80
2018-02-22T17:22:12.994Z,14.53
2018-02-22T17:24:41.303Z,11.93
2018-02-22T17:27:15.378Z,10.97
2018-02-22T17:29:49.274Z,11.57
2018-02-22T17:32:18.773Z,12.07
2018-02-22T17:34:47.816Z,12.40
2018-02-22T17:37:16.848Z,12.57
2018-02-22T17:39:50.785Z,11.60
2018-02-22T17:42:19.828Z,11.00
2018-02-22T17:44:48.063Z,10.77
2018-02-22T17:47:17.113Z,11.40
2018-02-22T17:49:45.392Z,11.23
2018-02-22T17:52:13.659Z,9.47
2018-02-22T17:54:41.984Z,9.90
2018-02-22T17:57:10.227Z,9.00
2018-02-22T17:59:38.478Z,13.02
2018-02-22T18:02:07.499Z,8.97
2018-02-22T18:04:35.807Z,9.17
2018-02-22T18:07:04.064Z,11.70
2018-02-22T18:09:32.324Z,9.60
2018-02-22T18:12:00.580Z,8.53
2018-02-22T18:14:28.847Z,11.37
2018-02-22T18:16:57.129Z,10.67
2018-02-22T18:19:25.441Z,9.63
2018-02-22T18:21:54.463Z,8.23
2018-02-22T18:24:22.742Z,10.40
2018-02-22T18:26:51.121Z,11.13
2018-02-22T18:29:19.378Z,9.50
2018-02-22T18:31:48.393Z,8.90
2018-02-22T18:34:17.410Z,7.83
2018-02-22T18:36:45.681Z,9.53
2018-02-22T18:39:16.784Z,13.00
2018-02-22T18:41:50.699Z,7.93
2018-02-22T18:44:24.722Z,9.73
2018-02-22T18:46:53.778Z,11.57
2018-02-22T18:49:22.050Z,8.83
2018-02-22T18:51:50.295Z,10.00
2018-02-22T18:54:19.322Z,10.20
2018-02-22T18:56:47.580Z,11.77
2018-02-22T18:59:16.639Z,11.13
2018-02-22T19:01:44.859Z,9.17
2018-02-22T19:04:13.893Z,11.67
2018-02-22T19:06:42.142Z,10.20
2018-02-22T19:09:11.182Z,10.93
2018-02-22T19:11:39.493Z,11.90
2018-02-22T19:14:07.733Z,10.13
2018-02-22T19:16:36.696Z,11.53
2018-02-22T19:19:06.487Z,12.83
2018-02-22T19:21:36.252Z,10.33
2018-02-22T19:24:04.574Z,10.87
2018-02-22T19:26:32.813Z,9.27
2018-02-22T19:29:01.102Z,11.43
2018-02-22T19:31:29.398Z,13.43
2018-02-22T19:33:57.676Z,15.70
2018-02-22T19:36:25.982Z,12.10
2018-02-22T19:38:54.246Z,11.00
2018-02-22T19:41:22.531Z,14.17
2018-02-22T19:43:50.793Z,11.90
2018-02-22T19:46:19.034Z,12.40
2018-02-22T19:48:48.080Z,11.33
2018-02-22T19:51:16.349Z,12.30
2018-02-22T19:53:44.735Z,10.93
2018-02-22T19:56:12.988Z,14.10
2018-02-22T19:58:42.036Z,10.60
2018-02-22T20:01:10.279Z,12.90
2018-02-22T20:03:39.306Z,8.93
2018-02-22T20:06:07.592Z,11.63
2018-02-22T20:08:35.867Z,10.93
2018-02-22T20:11:04.119Z,10.07
2018-02-22T20:13:33.172Z,11.83
2018-02-22T20:16:01.450Z,11.00
2018-02-22T20:18:29.915Z,11.57
2018-02-22T20:20:58.144Z,11.57
2018-02-22T20:23:27.180Z,12.13
2018-02-22T20:25:55.461Z,11.00
2018-02-22T20:28:23.734Z,12.57
2018-02-22T20:30:51.999Z,11.30
2018-02-22T20:33:21.135Z,10.17
2018-02-22T20:35:49.390Z,13.67
2018-02-22T20:38:17.651Z,13.03
2018-02-22T20:40:46.658Z,12.70
2018-02-22T20:43:15.754Z,12.80
2018-02-22T20:45:43.940Z,13.77
2018-02-22T20:48:13.785Z,17.20
2018-02-22T20:50:42.043Z,10.60
2018-02-22T20:53:26.073Z,14.20
2018-02-22T20:55:55.110Z,13.20
2018-02-22T20:58:23.389Z,14.60
2018-02-22T21:00:51.645Z,15.10
2018-02-22T21:03:21.227Z,12.93
2018-02-22T21:05:49.956Z,12.60
2018-02-22T21:08:18.445Z,16.02
2018-02-22T21:10:47.094Z,11.90
2018-02-22T21:13:16.091Z,14.53
2018-02-22T21:15:45.779Z,11.93
2018-02-22T21:18:14.498Z,12.10
2018-02-22T21:20:43.910Z,14.80
2018-02-22T21:23:13.380Z,13.20
2018-02-22T21:25:43.341Z,15.20
2018-02-22T21:28:11.862Z,14.03
2018-02-22T21:30:40.725Z,11.05
2018-02-22T21:33:10.133Z,12.23
2018-02-22T21:35:39.361Z,12.30
2018-02-22T21:38:07.824Z,14.47
2018-02-22T21:40:36.411Z,15.77
2018-02-22T21:43:05.133Z,19.58
2018-02-22T21:45:34.220Z,14.75
2018-02-22T21:48:02.724Z,15.98
2018-02-22T21:50:31.299Z,14.20
2018-02-22T21:52:59.774Z,17.40
2018-02-22T21:55:28.217Z,10.60
2018-02-22T21:57:56.466Z,14.57
2018-02-22T22:00:24.730Z,12.50
2018-02-22T22:02:53.770Z,15.83
2018-02-22T22:05:22.037Z,12.97
2018-02-22T22:07:50.288Z,19.30
2018-02-22T22:10:19.313Z,17.80
2018-02-22T22:12:47.571Z,16.07
2018-02-22T22:15:15.833Z,14.07
2018-02-22T22:17:44.850Z,16.80
2018-02-22T22:20:13.135Z,14.05
2018-02-22T22:22:41.412Z,13.75
2018-02-22T22:25:10.459Z,14.33
2018-02-22T22:27:38.767Z,15.40
2018-02-22T22:30:07.021Z,17.77
2018-02-22T22:32:35.334Z,14.55
2018-02-22T22:35:04.378Z,13.30
2018-02-22T22:37:32.652Z,18.60
2018-02-22T22:40:00.934Z,20.30
2018-02-22T22:42:29.193Z,15.40
2018-02-22T22:44:57.453Z,16.20
2018-02-22T22:47:25.800Z,15.20
2018-02-22T22:49:54.080Z,12.30
2018-02-22T22:52:22.320Z,13.10
2018-02-22T22:54:51.354Z,19.63
2018-02-22T22:57:19.599Z,16.27
2018-02-22T22:59:48.642Z,14.00
2018-02-22T23:02:16.901Z,17.83
2018-02-22T23:04:45.173Z,17.80
2018-02-22T23:07:14.219Z,12.70
2018-02-22T23:09:42.488Z,15.17
2018-02-22T23:12:10.769Z,18.87
2018-02-22T23:14:39.035Z,15.93
2018-02-22T23:17:07.303Z,15.73
2018-02-22T23:19:36.447Z,18.30
2018-02-22T23:22:05.127Z,13.60
2018-02-22T23:24:33.404Z,13.75
2018-02-22T23:27:01.711Z,15.82
2018-02-22T23:29:29.970Z,15.10
2018-02-22T23:31:58.222Z,12.50
2018-02-22T23:34:26.492Z,14.32
2018-02-22T23:36:55.499Z,13.67
2018-02-22T23:39:24.537Z,16.23
2018-02-22T23:45:01.254Z,11.25
2018-02-22T23:47:29.510Z,18.33
2018-02-22T23:49:57.771Z,15.80
2018-02-22T23:52:26.022Z,16.23
2018-02-22T23:54:54.292Z,15.50
2018-02-22T23:57:22.645Z,15.23
2018-02-22T23:59:50.917Z,14.02
